Accueil
METAR-TAF:

METAR-TAF

Aéroports :

Moroni, Comores

Aéroport international Prince Saïd Ibrahim

latitude: 11-32S, longitude: 043-16E, altitude: 29 m

Observation

Le bulletin a été fait il y a 48 minutes, à 04:00 UTC
Vent calme
Température 27°C
Humidité 79%
Pression 1016 hPa
Visibilité 10 km ou plus
Quelques nuages à une hauteur de 2000 ft

METAR: FMCH 220400Z 00000KT 9999 FEW020 27/23 Q1016 NOSIG

Heure: 07:48 (04:48 UTC)

Prévision

Le bulletin a été fait il y a 11 heures et 48 minutes, à 17:00 UTC
Prévision valable du 21 à 18 UTC au 22 à 24 UTC
Vent 3 kt de est
Visibilité 10 km ou plus
Quelques nuages à une hauteur de 2000 ft
Evoluant progressivement
du 22 à 04 UTC au 22 à 06 UTC
Vent 14 kt de sud/sud-ouest
Evoluant progressivement
du 22 à 15 UTC au 22 à 17 UTC
Vent 3 kt de est

TAF: FMCH 211700Z 2118/2224 10003KT 9999 FEW020 BECMG 2204/2206 21014KT BECMG 2215/2217 09003KT

Observations et prévisions météorologiques de plus de 4000 aéroports (messages METAR et TAF).

Les stations disponibles sont représentées par des disques jaunes et rouges sur la carte.

Passer la souris dessus pour voir le nom de la station.

Cliquer dessus pour voir les observations et prévisions météorologiques.

Pour changer de carte: cliquez sur les boutons verts avec une croix noire pour zoomer, sur le bouton vert avec un tiret pour effectuer un zoom arrière, ou sur les flèches vertes pour les cartes adjacentes.


METAR-TAF: